sensor_id;sensor_type;location;lat;lon;timestamp;pressure;altitude;pressure_sealevel;temperature;humidity
35291;BME280;21411;50.024;19.220;2024-03-08T00:01:31;99581.23;;;1.44;100.00
35291;BME280;21411;50.024;19.220;2024-03-08T00:03:58;99584.38;;;1.44;100.00
35291;BME280;21411;50.024;19.220;2024-03-08T00:06:25;99584.73;;;1.44;100.00
35291;BME280;21411;50.024;19.220;2024-03-08T00:08:51;99586.16;;;1.43;100.00
35291;BME280;21411;50.024;19.220;2024-03-08T00:11:18;99582.01;;;1.41;100.00
35291;BME280;21411;50.024;19.220;2024-03-08T00:13:44;99577.65;;;1.40;100.00
35291;BME280;21411;50.024;19.220;2024-03-08T00:16:11;99574.31;;;1.40;100.00
35291;BME280;21411;50.024;19.220;2024-03-08T00:18:38;99573.27;;;1.40;100.00
35291;BME280;21411;50.024;19.220;2024-03-08T00:21:05;99572.92;;;1.40;100.00
35291;BME280;21411;50.024;19.220;2024-03-08T00:23:31;99571.88;;;1.39;100.00
35291;BME280;21411;50.024;19.220;2024-03-08T00:25:59;99570.83;;;1.39;100.00
35291;BME280;21411;50.024;19.220;2024-03-08T00:28:26;99565.41;;;1.38;100.00
35291;BME280;21411;50.024;19.220;2024-03-08T00:30:53;99561.61;;;1.36;100.00
35291;BME280;21411;50.024;19.220;2024-03-08T00:33:20;99562.00;;;1.35;100.00
35291;BME280;21411;50.024;19.220;2024-03-08T00:35:46;99560.81;;;1.33;100.00
35291;BME280;21411;50.024;19.220;2024-03-08T00:38:13;99557.86;;;1.32;100.00
35291;BME280;21411;50.024;19.220;2024-03-08T00:40:40;99558.21;;;1.31;100.00
35291;BME280;21411;50.024;19.220;2024-03-08T00:43:06;99559.98;;;1.30;100.00
35291;BME280;21411;50.024;19.220;2024-03-08T00:45:33;99561.42;;;1.28;100.00
35291;BME280;21411;50.024;19.220;2024-03-08T00:47:59;99554.80;;;1.27;100.00
35291;BME280;21411;50.024;19.220;2024-03-08T00:50:26;99554.41;;;1.28;100.00
35291;BME280;21411;50.024;19.220;2024-03-08T00:52:53;99553.35;;;1.29;100.00
35291;BME280;21411;50.024;19.220;2024-03-08T00:55:19;99553.89;;;1.28;100.00
35291;BME280;21411;50.024;19.220;2024-03-08T00:57:46;99548.65;;;1.28;100.00
35291;BME280;21411;50.024;19.220;2024-03-08T01:00:13;99545.86;;;1.28;100.00
35291;BME280;21411;50.024;19.220;2024-03-08T01:02:40;99545.71;;;1.26;100.00
35291;BME280;21411;50.024;19.220;2024-03-08T01:05:07;99542.23;;;1.25;100.00
35291;BME280;21411;50.024;19.220;2024-03-08T01:07:34;99539.97;;;1.25;100.00
35291;BME280;21411;50.024;19.220;2024-03-08T01:10:02;99538.24;;;1.23;100.00
35291;BME280;21411;50.024;19.220;2024-03-08T01:12:29;99537.23;;;1.22;100.00
35291;BME280;21411;50.024;19.220;2024-03-08T01:14:56;99536.23;;;1.19;100.00
35291;BME280;21411;50.024;19.220;2024-03-08T01:17:23;99533.27;;;1.19;100.00
35291;BME280;21411;50.024;19.220;2024-03-08T01:19:50;99530.32;;;1.17;100.00
35291;BME280;21411;50.024;19.220;2024-03-08T01:22:16;99527.34;;;1.17;100.00
35291;BME280;21411;50.024;19.220;2024-03-08T01:24:43;99518.44;;;1.16;100.00
35291;BME280;21411;50.024;19.220;2024-03-08T01:27:09;99516.88;;;1.15;100.00
35291;BME280;21411;50.024;19.220;2024-03-08T01:29:36;99511.85;;;1.14;100.00
35291;BME280;21411;50.024;19.220;2024-03-08T01:32:03;99510.28;;;1.13;100.00
35291;BME280;21411;50.024;19.220;2024-03-08T01:34:29;99511.36;;;1.12;100.00
35291;BME280;21411;50.024;19.220;2024-03-08T01:36:56;99508.55;;;1.12;100.00
35291;BME280;21411;50.024;19.220;2024-03-08T01:39:23;99505.60;;;1.11;100.00
35291;BME280;21411;50.024;19.220;2024-03-08T01:41:50;99501.06;;;1.10;100.00
35291;BME280;21411;50.024;19.220;2024-03-08T01:44:17;99500.59;;;1.08;100.00
35291;BME280;21411;50.024;19.220;2024-03-08T01:46:44;99502.89;;;1.06;100.00
35291;BME280;21411;50.024;19.220;2024-03-08T01:49:12;99503.63;;;1.04;100.00
35291;BME280;21411;50.024;19.220;2024-03-08T01:51:41;99505.24;;;1.02;100.00
35291;BME280;21411;50.024;19.220;2024-03-08T01:54:08;99504.92;;;1.01;100.00
35291;BME280;21411;50.024;19.220;2024-03-08T01:56:37;99505.13;;;1.00;100.00
35291;BME280;21411;50.024;19.220;2024-03-08T01:59:04;99504.78;;;0.99;100.00
35291;BME280;21411;50.024;19.220;2024-03-08T02:01:32;99501.82;;;0.99;100.00
35291;BME280;21411;50.024;19.220;2024-03-08T02:03:59;99498.16;;;0.97;100.00
35291;BME280;21411;50.024;19.220;2024-03-08T02:06:26;99498.53;;;0.97;100.00
35291;BME280;21411;50.024;19.220;2024-03-08T02:08:53;99495.75;;;0.96;100.00
35291;BME280;21411;50.024;19.220;2024-03-08T02:11:19;99490.70;;;0.94;100.00
35291;BME280;21411;50.024;19.220;2024-03-08T02:13:46;99489.34;;;0.93;100.00
35291;BME280;21411;50.024;19.220;2024-03-08T02:16:20;99489.34;;;0.92;100.00
35291;BME280;21411;50.024;19.220;2024-03-08T02:18:46;99491.14;;;0.90;100.00
35291;BME280;21411;50.024;19.220;2024-03-08T02:21:13;99487.50;;;0.88;100.00
35291;BME280;21411;50.024;19.220;2024-03-08T02:23:41;99487.36;;;0.87;100.00
35291;BME280;21411;50.024;19.220;2024-03-08T02:26:07;99484.58;;;0.86;100.00
35291;BME280;21411;50.024;19.220;2024-03-08T02:28:34;99482.15;;;0.84;100.00
35291;BME280;21411;50.024;19.220;2024-03-08T02:31:01;99479.92;;;0.82;100.00
35291;BME280;21411;50.024;19.220;2024-03-08T02:33:28;99478.58;;;0.80;100.00
35291;BME280;21411;50.024;19.220;2024-03-08T02:35:55;99481.45;;;0.76;100.00
35291;BME280;21411;50.024;19.220;2024-03-08T02:38:24;99484.14;;;0.72;100.00
35291;BME280;21411;50.024;19.220;2024-03-08T02:40:52;99480.18;;;0.69;100.00
35291;BME280;21411;50.024;19.220;2024-03-08T02:43:20;99480.37;;;0.68;100.00
35291;BME280;21411;50.024;19.220;2024-03-08T02:45:48;99479.36;;;0.67;100.00
35291;BME280;21411;50.024;19.220;2024-03-08T02:48:16;99476.03;;;0.67;100.00
35291;BME280;21411;50.024;19.220;2024-03-08T02:50:45;99475.85;;;0.67;100.00
35291;BME280;21411;50.024;19.220;2024-03-08T02:53:12;99479.33;;;0.68;100.00
35291;BME280;21411;50.024;19.220;2024-03-08T02:55:40;99482.81;;;0.68;100.00
35291;BME280;21411;50.024;19.220;2024-03-08T02:58:07;99484.57;;;0.69;100.00
35291;BME280;21411;50.024;19.220;2024-03-08T03:00:37;99485.57;;;0.71;100.00
35291;BME280;21411;50.024;19.220;2024-03-08T03:03:05;99483.42;;;0.73;100.00
35291;BME280;21411;50.024;19.220;2024-03-08T03:05:33;99484.80;;;0.74;100.00
35291;BME280;21411;50.024;19.220;2024-03-08T03:08:00;99477.45;;;0.75;100.00
35291;BME280;21411;50.024;19.220;2024-03-08T03:10:26;99475.89;;;0.74;100.00
35291;BME280;21411;50.024;19.220;2024-03-08T03:12:53;99476.28;;;0.72;100.00
35291;BME280;21411;50.024;19.220;2024-03-08T03:15:19;99475.27;;;0.69;100.00
35291;BME280;21411;50.024;19.220;2024-03-08T03:17:49;99473.41;;;0.66;100.00
35291;BME280;21411;50.024;19.220;2024-03-08T03:20:19;99473.79;;;0.64;100.00
35291;BME280;21411;50.024;19.220;2024-03-08T03:22:52;99470.19;;;0.61;100.00
35291;BME280;21411;50.024;19.220;2024-03-08T03:25:19;99468.10;;;0.60;100.00
35291;BME280;21411;50.024;19.220;2024-03-08T03:27:55;99471.98;;;0.58;100.00
35291;BME280;21411;50.024;19.220;2024-03-08T03:30:24;99469.40;;;0.56;100.00
35291;BME280;21411;50.024;19.220;2024-03-08T03:32:53;99466.48;;;0.53;100.00
35291;BME280;21411;50.024;19.220;2024-03-08T03:35:21;99469.14;;;0.52;100.00
35291;BME280;21411;50.024;19.220;2024-03-08T03:37:48;99473.18;;;0.51;100.00
35291;BME280;21411;50.024;19.220;2024-03-08T03:40:28;99472.67;;;0.50;100.00
35291;BME280;21411;50.024;19.220;2024-03-08T03:42:55;99474.40;;;0.51;100.00
35291;BME280;21411;50.024;19.220;2024-03-08T03:45:23;99476.14;;;0.51;100.00
35291;BME280;21411;50.024;19.220;2024-03-08T03:47:50;99471.58;;;0.53;100.00
35291;BME280;21411;50.024;19.220;2024-03-08T03:50:18;99470.89;;;0.53;100.00
35291;BME280;21411;50.024;19.220;2024-03-08T03:52:46;99473.29;;;0.54;100.00
35291;BME280;21411;50.024;19.220;2024-03-08T03:55:13;99471.00;;;0.55;100.00
35291;BME280;21411;50.024;19.220;2024-03-08T03:57:40;99470.82;;;0.56;100.00
35291;BME280;21411;50.024;19.220;2024-03-08T04:00:07;99470.79;;;0.57;100.00
35291;BME280;21411;50.024;19.220;2024-03-08T04:02:38;99471.29;;;0.58;100.00
35291;BME280;21411;50.024;19.220;2024-03-08T04:05:05;99472.13;;;0.60;100.00
35291;BME280;21411;50.024;19.220;2024-03-08T04:07:33;99469.15;;;0.60;100.00
35291;BME280;21411;50.024;19.220;2024-03-08T04:10:04;99466.36;;;0.60;100.00
35291;BME280;21411;50.024;19.220;2024-03-08T04:12:35;99464.50;;;0.57;100.00
35291;BME280;21411;50.024;19.220;2024-03-08T04:15:02;99463.66;;;0.55;100.00
35291;BME280;21411;50.024;19.220;2024-03-08T04:17:29;99464.58;;;0.53;100.00
35291;BME280;21411;50.024;19.220;2024-03-08T04:19:55;99465.59;;;0.55;100.00
35291;BME280;21411;50.024;19.220;2024-03-08T04:22:22;99466.06;;;0.57;100.00
35291;BME280;21411;50.024;19.220;2024-03-08T04:24:48;99465.51;;;0.59;100.00
35291;BME280;21411;50.024;19.220;2024-03-08T04:27:15;99464.77;;;0.61;100.00
35291;BME280;21411;50.024;19.220;2024-03-08T04:29:42;99464.91;;;0.63;100.00
35291;BME280;21411;50.024;19.220;2024-03-08T04:32:10;99464.88;;;0.64;100.00
35291;BME280;21411;50.024;19.220;2024-03-08T04:34:37;99463.46;;;0.65;100.00
35291;BME280;21411;50.024;19.220;2024-03-08T04:37:04;99465.56;;;0.65;100.00
35291;BME280;21411;50.024;19.220;2024-03-08T04:39:31;99468.35;;;0.65;100.00
35291;BME280;21411;50.024;19.220;2024-03-08T04:42:01;99471.50;;;0.66;100.00
35291;BME280;21411;50.024;19.220;2024-03-08T04:44:33;99470.09;;;0.67;100.00
35291;BME280;21411;50.024;19.220;2024-03-08T04:46:59;99468.32;;;0.68;100.00
35291;BME280;21411;50.024;19.220;2024-03-08T04:49:26;99470.92;;;0.69;100.00
35291;BME280;21411;50.024;19.220;2024-03-08T04:51:54;99468.44;;;0.70;100.00
35291;BME280;21411;50.024;19.220;2024-03-08T04:54:21;99471.92;;;0.71;100.00
35291;BME280;21411;50.024;19.220;2024-03-08T04:56:47;99469.12;;;0.72;100.00
35291;BME280;21411;50.024;19.220;2024-03-08T04:59:14;99468.41;;;0.72;100.00
35291;BME280;21411;50.024;19.220;2024-03-08T05:01:40;99465.97;;;0.72;100.00
35291;BME280;21411;50.024;19.220;2024-03-08T05:04:07;99466.30;;;0.72;100.00
35291;BME280;21411;50.024;19.220;2024-03-08T05:06:33;99469.95;;;0.73;100.00
35291;BME280;21411;50.024;19.220;2024-03-08T05:08:59;99472.56;;;0.73;100.00
35291;BME280;21411;50.024;19.220;2024-03-08T05:11:26;99473.27;;;0.74;100.00
35291;BME280;21411;50.024;19.220;2024-03-08T05:13:53;99478.86;;;0.74;100.00
35291;BME280;21411;50.024;19.220;2024-03-08T05:16:20;99476.05;;;0.74;100.00
35291;BME280;21411;50.024;19.220;2024-03-08T05:18:48;99478.83;;;0.75;100.00
35291;BME280;21411;50.024;19.220;2024-03-08T05:21:15;99481.09;;;0.76;100.00
35291;BME280;21411;50.024;19.220;2024-03-08T05:23:43;99485.63;;;0.77;100.00
35291;BME280;21411;50.024;19.220;2024-03-08T05:26:10;99485.77;;;0.78;100.00
35291;BME280;21411;50.024;19.220;2024-03-08T05:28:36;99486.80;;;0.79;100.00
35291;BME280;21411;50.024;19.220;2024-03-08T05:31:03;99483.14;;;0.79;100.00
35291;BME280;21411;50.024;19.220;2024-03-08T05:33:29;99483.64;;;0.80;100.00
35291;BME280;21411;50.024;19.220;2024-03-08T05:35:56;99479.25;;;0.81;100.00
35291;BME280;21411;50.024;19.220;2024-03-08T05:38:22;99481.16;;;0.82;100.00
35291;BME280;21411;50.024;19.220;2024-03-08T05:40:49;99485.00;;;0.83;100.00
35291;BME280;21411;50.024;19.220;2024-03-08T05:43:17;99486.19;;;0.83;100.00
35291;BME280;21411;50.024;19.220;2024-03-08T05:45:46;99486.35;;;0.84;100.00
35291;BME280;21411;50.024;19.220;2024-03-08T05:48:13;99488.95;;;0.86;100.00
35291;BME280;21411;50.024;19.220;2024-03-08T05:50:40;99487.52;;;0.88;100.00
35291;BME280;21411;50.024;19.220;2024-03-08T05:53:06;99489.73;;;0.91;100.00
35291;BME280;21411;50.024;19.220;2024-03-08T05:55:33;99491.95;;;0.93;100.00
35291;BME280;21411;50.024;19.220;2024-03-08T05:58:02;99491.92;;;0.95;100.00
35291;BME280;21411;50.024;19.220;2024-03-08T06:00:28;99495.21;;;0.96;100.00
35291;BME280;21411;50.024;19.220;2024-03-08T06:02:57;99490.46;;;0.98;100.00
35291;BME280;21411;50.024;19.220;2024-03-08T06:05:25;99491.65;;;0.99;100.00
35291;BME280;21411;50.024;19.220;2024-03-08T06:07:51;99487.60;;;1.01;100.00
35291;BME280;21411;50.024;19.220;2024-03-08T06:10:19;99492.66;;;1.01;100.00
35291;BME280;21411;50.024;19.220;2024-03-08T06:12:46;99492.64;;;1.03;100.00
35291;BME280;21411;50.024;19.220;2024-03-08T06:15:12;99487.67;;;1.06;100.00
35291;BME280;21411;50.024;19.220;2024-03-08T06:17:42;99488.29;;;1.10;100.00
35291;BME280;21411;50.024;19.220;2024-03-08T06:20:09;99489.09;;;1.14;100.00
35291;BME280;21411;50.024;19.220;2024-03-08T06:22:39;99493.07;;;1.16;100.00
35291;BME280;21411;50.024;19.220;2024-03-08T06:25:10;99494.70;;;1.21;100.00
35291;BME280;21411;50.024;19.220;2024-03-08T06:27:43;99495.11;;;1.27;100.00
35291;BME280;21411;50.024;19.220;2024-03-08T06:30:10;99492.40;;;1.30;100.00
35291;BME280;21411;50.024;19.220;2024-03-08T06:32:37;99490.02;;;1.36;100.00
35291;BME280;21411;50.024;19.220;2024-03-08T06:35:04;99491.33;;;1.40;100.00
35291;BME280;21411;50.024;19.220;2024-03-08T06:37:33;99491.98;;;1.43;100.00
35291;BME280;21411;50.024;19.220;2024-03-08T06:40:00;99487.38;;;1.45;100.00
35291;BME280;21411;50.024;19.220;2024-03-08T06:42:27;99488.75;;;1.46;100.00
35291;BME280;21411;50.024;19.220;2024-03-08T06:45:01;99485.73;;;1.47;100.00
35291;BME280;21411;50.024;19.220;2024-03-08T06:47:31;99486.39;;;1.49;100.00
35291;BME280;21411;50.024;19.220;2024-03-08T06:49:58;99487.04;;;1.52;100.00
35291;BME280;21411;50.024;19.220;2024-03-08T06:52:25;99489.61;;;1.55;100.00
35291;BME280;21411;50.024;19.220;2024-03-08T06:54:51;99490.73;;;1.59;100.00
35291;BME280;21411;50.024;19.220;2024-03-08T06:57:19;99490.48;;;1.63;100.00
35291;BME280;21411;50.024;19.220;2024-03-08T06:59:48;99485.66;;;1.66;100.00
35291;BME280;21411;50.024;19.220;2024-03-08T07:02:15;99481.30;;;1.74;100.00
35291;BME280;21411;50.024;19.220;2024-03-08T07:04:42;99479.64;;;1.84;100.00
35291;BME280;21411;50.024;19.220;2024-03-08T07:07:08;99478.14;;;1.88;100.00
35291;BME280;21411;50.024;19.220;2024-03-08T07:09:38;99474.20;;;1.99;100.00
35291;BME280;21411;50.024;19.220;2024-03-08T07:12:05;99477.09;;;2.17;100.00
35291;BME280;21411;50.024;19.220;2024-03-08T07:14:32;99476.95;;;2.30;100.00
35291;BME280;21411;50.024;19.220;2024-03-08T07:16:58;99472.68;;;2.39;100.00
35291;BME280;21411;50.024;19.220;2024-03-08T07:19:25;99478.19;;;2.43;100.00
35291;BME280;21411;50.024;19.220;2024-03-08T07:21:51;99477.90;;;2.47;100.00
35291;BME280;21411;50.024;19.220;2024-03-08T07:24:17;99473.35;;;2.47;100.00
35291;BME280;21411;50.024;19.220;2024-03-08T07:26:44;99475.70;;;2.44;100.00
35291;BME280;21411;50.024;19.220;2024-03-08T07:29:11;99476.39;;;2.45;100.00
35291;BME280;21411;50.024;19.220;2024-03-08T07:31:37;99475.40;;;2.49;100.00
35291;BME280;21411;50.024;19.220;2024-03-08T07:34:04;99472.44;;;2.55;100.00
35291;BME280;21411;50.024;19.220;2024-03-08T07:36:34;99479.00;;;2.59;100.00
35291;BME280;21411;50.024;19.220;2024-03-08T07:39:03;99483.13;;;2.68;100.00
35291;BME280;21411;50.024;19.220;2024-03-08T07:41:38;99479.38;;;2.77;100.00
35291;BME280;21411;50.024;19.220;2024-03-08T07:44:07;99480.00;;;2.80;100.00
35291;BME280;21411;50.024;19.220;2024-03-08T07:46:33;99478.51;;;2.77;100.00
35291;BME280;21411;50.024;19.220;2024-03-08T07:49:00;99482.13;;;2.79;100.00
35291;BME280;21411;50.024;19.220;2024-03-08T07:51:27;99486.45;;;2.88;100.00
35291;BME280;21411;50.024;19.220;2024-03-08T07:53:53;99485.09;;;2.99;100.00
35291;BME280;21411;50.024;19.220;2024-03-08T07:56:21;99483.65;;;3.06;100.00
35291;BME280;21411;50.024;19.220;2024-03-08T07:58:48;99487.41;;;3.10;100.00
35291;BME280;21411;50.024;19.220;2024-03-08T08:01:18;99488.89;;;3.14;100.00
35291;BME280;21411;50.024;19.220;2024-03-08T08:03:45;99487.91;;;3.11;100.00
35291;BME280;21411;50.024;19.220;2024-03-08T08:06:11;99483.42;;;3.14;100.00
35291;BME280;21411;50.024;19.220;2024-03-08T08:08:42;99491.71;;;3.20;100.00
35291;BME280;21411;50.024;19.220;2024-03-08T08:11:09;99491.34;;;3.14;100.00
35291;BME280;21411;50.024;19.220;2024-03-08T08:13:35;99488.80;;;3.11;100.00
35291;BME280;21411;50.024;19.220;2024-03-08T08:16:03;99483.07;;;3.08;100.00
35291;BME280;21411;50.024;19.220;2024-03-08T08:18:30;99489.56;;;3.14;100.00
35291;BME280;21411;50.024;19.220;2024-03-08T08:20:56;99491.70;;;3.13;100.00
35291;BME280;21411;50.024;19.220;2024-03-08T08:23:23;99490.52;;;3.06;100.00
35291;BME280;21411;50.024;19.220;2024-03-08T08:25:49;99492.33;;;3.03;100.00
35291;BME280;21411;50.024;19.220;2024-03-08T08:28:16;99492.93;;;3.07;100.00
35291;BME280;21411;50.024;19.220;2024-03-08T08:30:44;99495.65;;;3.11;100.00
35291;BME280;21411;50.024;19.220;2024-03-08T08:33:11;99500.61;;;3.08;100.00
35291;BME280;21411;50.024;19.220;2024-03-08T08:35:37;99494.41;;;3.05;100.00
35291;BME280;21411;50.024;19.220;2024-03-08T08:38:07;99496.95;;;2.95;100.00
35291;BME280;21411;50.024;19.220;2024-03-08T08:40:34;99505.27;;;2.86;100.00
35291;BME280;21411;50.024;19.220;2024-03-08T08:43:02;99502.57;;;2.82;100.00
35291;BME280;21411;50.024;19.220;2024-03-08T08:45:32;99503.57;;;2.78;100.00
35291;BME280;21411;50.024;19.220;2024-03-08T08:47:59;99505.89;;;2.76;100.00
35291;BME280;21411;50.024;19.220;2024-03-08T08:50:26;99502.05;;;2.76;100.00
35291;BME280;21411;50.024;19.220;2024-03-08T08:52:54;99499.77;;;2.82;100.00
35291;BME280;21411;50.024;19.220;2024-03-08T08:55:22;99500.41;;;2.84;100.00
35291;BME280;21411;50.024;19.220;2024-03-08T08:57:51;99503.82;;;2.82;100.00
35291;BME280;21411;50.024;19.220;2024-03-08T09:00:21;99504.50;;;2.76;100.00
35291;BME280;21411;50.024;19.220;2024-03-08T09:02:50;99504.41;;;2.73;100.00
35291;BME280;21411;50.024;19.220;2024-03-08T09:05:17;99496.97;;;2.75;100.00
35291;BME280;21411;50.024;19.220;2024-03-08T09:07:44;99498.27;;;2.79;100.00
35291;BME280;21411;50.024;19.220;2024-03-08T09:10:14;99499.15;;;2.79;100.00
35291;BME280;21411;50.024;19.220;2024-03-08T09:12:40;99495.61;;;2.80;100.00
35291;BME280;21411;50.024;19.220;2024-03-08T09:15:30;99497.06;;;2.85;100.00
35291;BME280;21411;50.024;19.220;2024-03-08T09:17:57;99496.16;;;2.92;100.00
35291;BME280;21411;50.024;19.220;2024-03-08T09:20:24;99491.15;;;3.02;100.00
35291;BME280;21411;50.024;19.220;2024-03-08T09:22:51;99492.14;;;3.04;100.00
35291;BME280;21411;50.024;19.220;2024-03-08T09:25:17;99492.58;;;3.01;100.00
35291;BME280;21411;50.024;19.220;2024-03-08T09:27:44;99489.20;;;3.03;100.00
35291;BME280;21411;50.024;19.220;2024-03-08T09:30:13;99489.98;;;3.12;100.00
35291;BME280;21411;50.024;19.220;2024-03-08T09:32:39;99491.42;;;3.17;100.00
35291;BME280;21411;50.024;19.220;2024-03-08T09:35:06;99492.20;;;3.20;100.00
35291;BME280;21411;50.024;19.220;2024-03-08T09:37:35;99487.98;;;3.26;100.00
35291;BME280;21411;50.024;19.220;2024-03-08T09:40:02;99487.53;;;3.41;100.00
35291;BME280;21411;50.024;19.220;2024-03-08T09:42:35;99482.09;;;3.59;100.00
35291;BME280;21411;50.024;19.220;2024-03-08T09:45:08;99484.60;;;3.69;100.00
35291;BME280;21411;50.024;19.220;2024-03-08T09:47:41;99485.81;;;3.75;100.00
35291;BME280;21411;50.024;19.220;2024-03-08T09:50:08;99484.67;;;3.72;100.00
35291;BME280;21411;50.024;19.220;2024-03-08T09:52:36;99483.34;;;3.64;100.00
35291;BME280;21411;50.024;19.220;2024-03-08T09:55:05;99482.80;;;3.59;100.00
35291;BME280;21411;50.024;19.220;2024-03-08T09:57:36;99486.46;;;3.48;100.00
35291;BME280;21411;50.024;19.220;2024-03-08T10:00:04;99480.29;;;3.49;100.00
35291;BME280;21411;50.024;19.220;2024-03-08T10:02:45;99483.38;;;3.58;100.00
35291;BME280;21411;50.024;19.220;2024-03-08T10:05:13;99483.60;;;3.62;100.00
35291;BME280;21411;50.024;19.220;2024-03-08T10:07:40;99482.75;;;3.61;100.00
35291;BME280;21411;50.024;19.220;2024-03-08T10:10:07;99486.11;;;3.60;100.00
35291;BME280;21411;50.024;19.220;2024-03-08T10:12:34;99486.35;;;3.58;100.00
35291;BME280;21411;50.024;19.220;2024-03-08T10:15:01;99488.09;;;3.58;100.00
35291;BME280;21411;50.024;19.220;2024-03-08T10:17:27;99489.02;;;3.57;100.00
35291;BME280;21411;50.024;19.220;2024-03-08T10:19:58;99490.73;;;3.58;100.00
35291;BME280;21411;50.024;19.220;2024-03-08T10:22:26;99494.20;;;3.54;100.00
35291;BME280;21411;50.024;19.220;2024-03-08T10:24:52;99490.95;;;3.57;100.00
35291;BME280;21411;50.024;19.220;2024-03-08T10:27:19;99487.93;;;3.69;100.00
35291;BME280;21411;50.024;19.220;2024-03-08T10:29:47;99489.99;;;3.88;100.00
35291;BME280;21411;50.024;19.220;2024-03-08T10:32:14;99491.54;;;3.89;100.00
35291;BME280;21411;50.024;19.220;2024-03-08T10:34:41;99489.95;;;3.89;100.00
35291;BME280;21411;50.024;19.220;2024-03-08T10:37:15;99491.45;;;3.91;100.00
35291;BME280;21411;50.024;19.220;2024-03-08T10:39:52;99486.91;;;3.96;100.00
35291;BME280;21411;50.024;19.220;2024-03-08T10:42:28;99487.27;;;4.01;100.00
35291;BME280;21411;50.024;19.220;2024-03-08T10:45:19;99484.07;;;4.02;100.00
35291;BME280;21411;50.024;19.220;2024-03-08T10:47:49;99481.08;;;4.03;100.00
35291;BME280;21411;50.024;19.220;2024-03-08T10:50:21;99476.67;;;4.03;100.00
35291;BME280;21411;50.024;19.220;2024-03-08T10:52:52;99470.48;;;4.09;100.00
35291;BME280;21411;50.024;19.220;2024-03-08T10:55:19;99465.60;;;4.29;100.00
35291;BME280;21411;50.024;19.220;2024-03-08T10:57:46;99461.09;;;4.32;100.00
35291;BME280;21411;50.024;19.220;2024-03-08T11:00:14;99463.63;;;4.30;100.00
35291;BME280;21411;50.024;19.220;2024-03-08T11:02:44;99458.92;;;4.39;100.00
35291;BME280;21411;50.024;19.220;2024-03-08T11:10:53;99452.08;;;4.59;100.00
35291;BME280;21411;50.024;19.220;2024-03-08T11:13:42;99453.65;;;4.69;100.00
35291;BME280;21411;50.024;19.220;2024-03-08T11:21:37;99444.98;;;4.86;100.00
35291;BME280;21411;50.024;19.220;2024-03-08T11:24:11;99448.48;;;4.81;100.00
35291;BME280;21411;50.024;19.220;2024-03-08T11:26:40;99449.67;;;4.72;100.00
35291;BME280;21411;50.024;19.220;2024-03-08T11:29:33;99447.53;;;4.73;100.00
35291;BME280;21411;50.024;19.220;2024-03-08T11:32:11;99447.33;;;4.79;100.00
35291;BME280;21411;50.024;19.220;2024-03-08T11:34:43;99445.27;;;4.73;100.00
35291;BME280;21411;50.024;19.220;2024-03-08T11:37:14;99446.80;;;4.64;100.00
35291;BME280;21411;50.024;19.220;2024-03-08T11:39:54;99444.35;;;4.64;100.00
35291;BME280;21411;50.024;19.220;2024-03-08T11:42:25;99441.73;;;4.63;100.00
35291;BME280;21411;50.024;19.220;2024-03-08T11:44:54;99439.77;;;4.59;100.00
35291;BME280;21411;50.024;19.220;2024-03-08T11:47:21;99435.38;;;4.59;100.00
35291;BME280;21411;50.024;19.220;2024-03-08T11:49:48;99436.58;;;4.70;100.00
35291;BME280;21411;50.024;19.220;2024-03-08T11:52:16;99434.20;;;4.72;100.00
35291;BME280;21411;50.024;19.220;2024-03-08T11:54:48;99429.05;;;4.68;100.00
35291;BME280;21411;50.024;19.220;2024-03-08T11:57:20;99426.83;;;4.66;100.00
35291;BME280;21411;50.024;19.220;2024-03-08T11:59:52;99424.24;;;4.60;100.00
35291;BME280;21411;50.024;19.220;2024-03-08T12:02:18;99415.62;;;4.55;100.00
35291;BME280;21411;50.024;19.220;2024-03-08T12:04:45;99412.45;;;4.45;100.00
35291;BME280;21411;50.024;19.220;2024-03-08T12:07:12;99414.53;;;4.31;100.00
35291;BME280;21411;50.024;19.220;2024-03-08T12:09:40;99419.16;;;4.14;100.00
35291;BME280;21411;50.024;19.220;2024-03-08T12:12:07;99416.92;;;3.96;100.00
35291;BME280;21411;50.024;19.220;2024-03-08T12:14:34;99414.40;;;3.83;100.00
35291;BME280;21411;50.024;19.220;2024-03-08T12:17:00;99409.92;;;3.69;100.00
35291;BME280;21411;50.024;19.220;2024-03-08T12:19:28;99408.21;;;3.56;100.00
35291;BME280;21411;50.024;19.220;2024-03-08T12:21:55;99406.70;;;3.49;100.00
35291;BME280;21411;50.024;19.220;2024-03-08T12:24:22;99404.21;;;3.55;100.00
35291;BME280;21411;50.024;19.220;2024-03-08T12:26:49;99396.30;;;3.72;100.00
35291;BME280;21411;50.024;19.220;2024-03-08T12:29:27;99397.23;;;3.86;100.00
35291;BME280;21411;50.024;19.220;2024-03-08T12:31:57;99394.13;;;3.95;100.00
35291;BME280;21411;50.024;19.220;2024-03-08T12:34:27;99391.05;;;4.03;100.00
35291;BME280;21411;50.024;19.220;2024-03-08T12:36:54;99386.95;;;4.05;100.00
35291;BME280;21411;50.024;19.220;2024-03-08T12:39:22;99383.69;;;4.12;100.00
35291;BME280;21411;50.024;19.220;2024-03-08T12:41:49;99378.66;;;4.21;100.00
35291;BME280;21411;50.024;19.220;2024-03-08T12:44:18;99372.44;;;4.32;100.00
35291;BME280;21411;50.024;19.220;2024-03-08T12:46:45;99373.02;;;4.41;100.00
35291;BME280;21411;50.024;19.220;2024-03-08T12:49:11;99370.29;;;4.44;100.00
35291;BME280;21411;50.024;19.220;2024-03-08T12:51:39;99367.41;;;4.45;100.00
35291;BME280;21411;50.024;19.220;2024-03-08T12:54:05;99366.33;;;4.51;100.00
35291;BME280;21411;50.024;19.220;2024-03-08T12:56:35;99363.34;;;4.51;100.00
35291;BME280;21411;50.024;19.220;2024-03-08T12:59:07;99356.79;;;4.52;100.00
35291;BME280;21411;50.024;19.220;2024-03-08T13:01:34;99354.63;;;4.54;100.00
35291;BME280;21411;50.024;19.220;2024-03-08T13:04:04;99351.58;;;4.55;100.00
35291;BME280;21411;50.024;19.220;2024-03-08T13:06:32;99351.44;;;4.58;100.00